sensor_id;sensor_type;location;lat;lon;timestamp;temperature;humidity
29201;DHT22;16244;51.956;12.980;2022-08-19T00:01:50;21.10;99.90
29201;DHT22;16244;51.956;12.980;2022-08-19T00:04:20;21.00;99.90
29201;DHT22;16244;51.956;12.980;2022-08-19T00:06:50;20.90;99.90
29201;DHT22;16244;51.956;12.980;2022-08-19T00:09:19;20.80;99.90
29201;DHT22;16244;51.956;12.980;2022-08-19T00:11:47;20.70;99.90
29201;DHT22;16244;51.956;12.980;2022-08-19T00:14:15;20.60;99.90
29201;DHT22;16244;51.956;12.980;2022-08-19T00:16:45;20.50;99.90
29201;DHT22;16244;51.956;12.980;2022-08-19T00:19:14;20.50;99.90
29201;DHT22;16244;51.956;12.980;2022-08-19T00:21:42;20.40;99.90
29201;DHT22;16244;51.956;12.980;2022-08-19T00:24:12;20.30;99.90
29201;DHT22;16244;51.956;12.980;2022-08-19T00:26:41;20.30;99.90
29201;DHT22;16244;51.956;12.980;2022-08-19T00:29:10;20.20;99.90
29201;DHT22;16244;51.956;12.980;2022-08-19T00:31:37;20.20;99.90
29201;DHT22;16244;51.956;12.980;2022-08-19T00:34:05;20.20;99.90
29201;DHT22;16244;51.956;12.980;2022-08-19T00:36:32;20.20;99.90
29201;DHT22;16244;51.956;12.980;2022-08-19T00:39:00;20.20;99.90
29201;DHT22;16244;51.956;12.980;2022-08-19T00:41:29;20.20;99.90
29201;DHT22;16244;51.956;12.980;2022-08-19T00:44:01;20.20;99.90
29201;DHT22;16244;51.956;12.980;2022-08-19T00:46:29;20.20;99.90
29201;DHT22;16244;51.956;12.980;2022-08-19T00:48:57;20.20;99.90
29201;DHT22;16244;51.956;12.980;2022-08-19T00:51:27;20.10;99.90
29201;DHT22;16244;51.956;12.980;2022-08-19T00:53:57;20.10;99.90
29201;DHT22;16244;51.956;12.980;2022-08-19T00:56:25;20.10;99.90
29201;DHT22;16244;51.956;12.980;2022-08-19T00:58:55;20.10;99.90
29201;DHT22;16244;51.956;12.980;2022-08-19T01:01:23;20.00;99.90
29201;DHT22;16244;51.956;12.980;2022-08-19T01:03:50;20.00;99.90
29201;DHT22;16244;51.956;12.980;2022-08-19T01:06:21;20.00;99.90
29201;DHT22;16244;51.956;12.980;2022-08-19T01:08:48;20.00;99.90
29201;DHT22;16244;51.956;12.980;2022-08-19T01:11:15;20.10;99.90
29201;DHT22;16244;51.956;12.980;2022-08-19T01:13:43;20.10;99.90
29201;DHT22;16244;51.956;12.980;2022-08-19T01:16:13;20.10;99.90
29201;DHT22;16244;51.956;12.980;2022-08-19T01:18:42;20.10;99.90
29201;DHT22;16244;51.956;12.980;2022-08-19T01:21:15;20.10;99.90
29201;DHT22;16244;51.956;12.980;2022-08-19T01:23:45;20.20;99.90
29201;DHT22;16244;51.956;12.980;2022-08-19T01:26:15;20.20;99.90
29201;DHT22;16244;51.956;12.980;2022-08-19T01:28:43;20.20;99.90
29201;DHT22;16244;51.956;12.980;2022-08-19T01:31:14;20.20;99.90
29201;DHT22;16244;51.956;12.980;2022-08-19T01:33:42;20.20;99.90
29201;DHT22;16244;51.956;12.980;2022-08-19T01:36:12;20.20;99.90
29201;DHT22;16244;51.956;12.980;2022-08-19T01:38:41;20.20;99.90
29201;DHT22;16244;51.956;12.980;2022-08-19T01:41:10;20.30;99.90
29201;DHT22;16244;51.956;12.980;2022-08-19T01:43:38;20.30;99.90
29201;DHT22;16244;51.956;12.980;2022-08-19T01:46:06;20.40;99.90
29201;DHT22;16244;51.956;12.980;2022-08-19T01:48:34;20.40;99.90
29201;DHT22;16244;51.956;12.980;2022-08-19T01:51:02;20.50;99.90
29201;DHT22;16244;51.956;12.980;2022-08-19T01:53:29;20.50;99.90
29201;DHT22;16244;51.956;12.980;2022-08-19T01:55:57;20.40;99.90
29201;DHT22;16244;51.956;12.980;2022-08-19T01:58:28;20.30;99.90
29201;DHT22;16244;51.956;12.980;2022-08-19T02:00:57;20.30;99.90
29201;DHT22;16244;51.956;12.980;2022-08-19T02:03:25;20.20;99.90
29201;DHT22;16244;51.956;12.980;2022-08-19T02:05:56;20.20;99.90
29201;DHT22;16244;51.956;12.980;2022-08-19T02:08:25;20.20;99.90
29201;DHT22;16244;51.956;12.980;2022-08-19T02:10:53;20.20;99.90
29201;DHT22;16244;51.956;12.980;2022-08-19T02:13:20;20.20;99.90
29201;DHT22;16244;51.956;12.980;2022-08-19T02:15:48;20.20;99.90
29201;DHT22;16244;51.956;12.980;2022-08-19T02:18:16;20.10;99.90
29201;DHT22;16244;51.956;12.980;2022-08-19T02:20:44;20.10;99.90
29201;DHT22;16244;51.956;12.980;2022-08-19T02:23:14;20.10;99.90
29201;DHT22;16244;51.956;12.980;2022-08-19T02:25:42;20.10;99.90
29201;DHT22;16244;51.956;12.980;2022-08-19T02:28:10;20.00;99.90
29201;DHT22;16244;51.956;12.980;2022-08-19T02:30:38;20.00;99.90
29201;DHT22;16244;51.956;12.980;2022-08-19T02:33:06;20.00;99.90
29201;DHT22;16244;51.956;12.980;2022-08-19T02:35:34;20.00;99.90
29201;DHT22;16244;51.956;12.980;2022-08-19T02:38:01;20.00;99.90
29201;DHT22;16244;51.956;12.980;2022-08-19T02:40:49;20.00;99.90
29201;DHT22;16244;51.956;12.980;2022-08-19T02:43:18;20.00;99.90
29201;DHT22;16244;51.956;12.980;2022-08-19T02:45:46;19.90;99.90
29201;DHT22;16244;51.956;12.980;2022-08-19T02:48:15;19.90;99.90
29201;DHT22;16244;51.956;12.980;2022-08-19T02:50:44;19.90;99.90
29201;DHT22;16244;51.956;12.980;2022-08-19T02:53:12;19.90;99.90
29201;DHT22;16244;51.956;12.980;2022-08-19T02:55:43;19.90;99.90
29201;DHT22;16244;51.956;12.980;2022-08-19T02:58:12;19.90;99.90
29201;DHT22;16244;51.956;12.980;2022-08-19T03:00:42;19.90;99.90
29201;DHT22;16244;51.956;12.980;2022-08-19T03:03:10;19.90;99.90
29201;DHT22;16244;51.956;12.980;2022-08-19T03:05:39;19.80;99.90
29201;DHT22;16244;51.956;12.980;2022-08-19T03:08:08;19.80;99.90
29201;DHT22;16244;51.956;12.980;2022-08-19T03:10:43;19.90;99.90
29201;DHT22;16244;51.956;12.980;2022-08-19T03:13:14;19.90;99.90
29201;DHT22;16244;51.956;12.980;2022-08-19T03:15:43;19.80;99.90
29201;DHT22;16244;51.956;12.980;2022-08-19T03:18:11;19.80;99.90
29201;DHT22;16244;51.956;12.980;2022-08-19T03:20:44;19.90;99.90
29201;DHT22;16244;51.956;12.980;2022-08-19T03:23:12;19.90;99.90
29201;DHT22;16244;51.956;12.980;2022-08-19T03:25:40;19.90;99.90
29201;DHT22;16244;51.956;12.980;2022-08-19T03:28:10;19.90;99.90
29201;DHT22;16244;51.956;12.980;2022-08-19T03:30:38;19.90;99.90
29201;DHT22;16244;51.956;12.980;2022-08-19T03:33:06;19.90;99.90
29201;DHT22;16244;51.956;12.980;2022-08-19T03:35:33;20.00;99.90
29201;DHT22;16244;51.956;12.980;2022-08-19T03:38:04;20.00;99.90
29201;DHT22;16244;51.956;12.980;2022-08-19T03:40:35;20.00;99.90
29201;DHT22;16244;51.956;12.980;2022-08-19T03:43:03;19.90;99.90
29201;DHT22;16244;51.956;12.980;2022-08-19T03:45:31;19.90;99.90
29201;DHT22;16244;51.956;12.980;2022-08-19T03:47:58;19.90;99.90
29201;DHT22;16244;51.956;12.980;2022-08-19T03:50:26;19.90;99.90
29201;DHT22;16244;51.956;12.980;2022-08-19T03:52:53;19.90;99.90
29201;DHT22;16244;51.956;12.980;2022-08-19T03:55:21;19.90;99.90
29201;DHT22;16244;51.956;12.980;2022-08-19T03:57:48;19.90;99.90
29201;DHT22;16244;51.956;12.980;2022-08-19T04:00:16;19.90;99.90
29201;DHT22;16244;51.956;12.980;2022-08-19T04:02:43;19.90;99.90
29201;DHT22;16244;51.956;12.980;2022-08-19T04:05:10;19.90;99.90
29201;DHT22;16244;51.956;12.980;2022-08-19T04:07:38;19.90;99.90
29201;DHT22;16244;51.956;12.980;2022-08-19T04:10:06;19.90;99.90
29201;DHT22;16244;51.956;12.980;2022-08-19T04:12:34;19.90;99.90
29201;DHT22;16244;51.956;12.980;2022-08-19T04:15:03;19.90;99.90
29201;DHT22;16244;51.956;12.980;2022-08-19T04:17:30;19.90;99.90
29201;DHT22;16244;51.956;12.980;2022-08-19T04:19:58;19.90;99.90
29201;DHT22;16244;51.956;12.980;2022-08-19T04:22:25;19.90;99.90
29201;DHT22;16244;51.956;12.980;2022-08-19T04:24:52;19.90;99.90
29201;DHT22;16244;51.956;12.980;2022-08-19T04:27:19;20.00;99.90
29201;DHT22;16244;51.956;12.980;2022-08-19T04:29:47;20.00;99.90
29201;DHT22;16244;51.956;12.980;2022-08-19T04:32:14;20.00;99.90
29201;DHT22;16244;51.956;12.980;2022-08-19T04:34:41;20.00;99.90
29201;DHT22;16244;51.956;12.980;2022-08-19T04:37:09;20.00;99.90
29201;DHT22;16244;51.956;12.980;2022-08-19T04:39:39;20.00;99.90
29201;DHT22;16244;51.956;12.980;2022-08-19T04:42:24;20.10;99.90
29201;DHT22;16244;51.956;12.980;2022-08-19T04:45:10;20.10;99.90
29201;DHT22;16244;51.956;12.980;2022-08-19T04:47:38;20.20;99.90
29201;DHT22;16244;51.956;12.980;2022-08-19T04:50:07;20.20;99.90
29201;DHT22;16244;51.956;12.980;2022-08-19T04:52:37;20.20;99.90
29201;DHT22;16244;51.956;12.980;2022-08-19T04:55:08;20.20;99.90
29201;DHT22;16244;51.956;12.980;2022-08-19T04:57:36;20.30;99.90
29201;DHT22;16244;51.956;12.980;2022-08-19T05:00:08;20.40;99.90
29201;DHT22;16244;51.956;12.980;2022-08-19T05:02:35;20.50;99.90
29201;DHT22;16244;51.956;12.980;2022-08-19T05:05:03;20.50;99.90
29201;DHT22;16244;51.956;12.980;2022-08-19T05:07:32;20.60;99.90
29201;DHT22;16244;51.956;12.980;2022-08-19T05:09:59;20.60;99.90
29201;DHT22;16244;51.956;12.980;2022-08-19T05:12:26;20.60;99.90
29201;DHT22;16244;51.956;12.980;2022-08-19T05:14:54;20.60;99.90
29201;DHT22;16244;51.956;12.980;2022-08-19T05:17:24;20.40;99.90
29201;DHT22;16244;51.956;12.980;2022-08-19T05:19:51;20.40;99.90
29201;DHT22;16244;51.956;12.980;2022-08-19T05:22:36;20.40;99.90
29201;DHT22;16244;51.956;12.980;2022-08-19T05:25:04;20.30;99.90
29201;DHT22;16244;51.956;12.980;2022-08-19T05:27:33;20.40;99.90
29201;DHT22;16244;51.956;12.980;2022-08-19T05:30:00;20.40;99.90
29201;DHT22;16244;51.956;12.980;2022-08-19T05:32:28;20.40;99.90
29201;DHT22;16244;51.956;12.980;2022-08-19T05:34:56;20.40;99.90
29201;DHT22;16244;51.956;12.980;2022-08-19T05:37:23;20.40;99.90
29201;DHT22;16244;51.956;12.980;2022-08-19T05:39:53;20.40;99.90
29201;DHT22;16244;51.956;12.980;2022-08-19T05:42:21;20.40;99.90
29201;DHT22;16244;51.956;12.980;2022-08-19T05:44:50;20.40;99.90
29201;DHT22;16244;51.956;12.980;2022-08-19T05:47:18;20.40;99.90
29201;DHT22;16244;51.956;12.980;2022-08-19T05:49:47;20.40;99.90
29201;DHT22;16244;51.956;12.980;2022-08-19T05:52:15;20.50;99.90
29201;DHT22;16244;51.956;12.980;2022-08-19T05:54:43;20.50;99.90
29201;DHT22;16244;51.956;12.980;2022-08-19T05:57:14;20.60;99.90
29201;DHT22;16244;51.956;12.980;2022-08-19T05:59:41;20.60;99.90
29201;DHT22;16244;51.956;12.980;2022-08-19T06:02:09;20.70;99.90
29201;DHT22;16244;51.956;12.980;2022-08-19T06:04:36;20.70;99.90
29201;DHT22;16244;51.956;12.980;2022-08-19T06:07:06;20.70;99.90
29201;DHT22;16244;51.956;12.980;2022-08-19T06:09:33;20.80;99.90
29201;DHT22;16244;51.956;12.980;2022-08-19T06:12:01;20.80;99.90
29201;DHT22;16244;51.956;12.980;2022-08-19T06:14:30;20.80;99.90
29201;DHT22;16244;51.956;12.980;2022-08-19T06:16:58;20.80;99.90
29201;DHT22;16244;51.956;12.980;2022-08-19T06:19:28;20.90;99.90
29201;DHT22;16244;51.956;12.980;2022-08-19T06:21:57;20.80;99.90
29201;DHT22;16244;51.956;12.980;2022-08-19T06:24:28;20.80;99.90
29201;DHT22;16244;51.956;12.980;2022-08-19T06:26:57;20.80;99.90
29201;DHT22;16244;51.956;12.980;2022-08-19T06:29:26;20.80;99.90
29201;DHT22;16244;51.956;12.980;2022-08-19T06:31:56;20.80;99.90
29201;DHT22;16244;51.956;12.980;2022-08-19T06:34:24;20.80;99.90
29201;DHT22;16244;51.956;12.980;2022-08-19T06:36:52;20.80;99.90
29201;DHT22;16244;51.956;12.980;2022-08-19T06:39:22;20.80;99.90
29201;DHT22;16244;51.956;12.980;2022-08-19T06:41:53;20.90;99.90
29201;DHT22;16244;51.956;12.980;2022-08-19T06:44:23;20.80;99.90
29201;DHT22;16244;51.956;12.980;2022-08-19T06:46:51;20.80;99.90
29201;DHT22;16244;51.956;12.980;2022-08-19T06:49:18;20.80;99.90
29201;DHT22;16244;51.956;12.980;2022-08-19T06:51:47;20.80;99.90
29201;DHT22;16244;51.956;12.980;2022-08-19T06:54:15;20.80;99.90
29201;DHT22;16244;51.956;12.980;2022-08-19T06:56:43;20.90;99.90
29201;DHT22;16244;51.956;12.980;2022-08-19T06:59:14;21.00;99.90
29201;DHT22;16244;51.956;12.980;2022-08-19T07:01:44;21.00;99.90
29201;DHT22;16244;51.956;12.980;2022-08-19T07:04:14;21.00;99.90
29201;DHT22;16244;51.956;12.980;2022-08-19T07:06:42;21.00;99.90
29201;DHT22;16244;51.956;12.980;2022-08-19T07:09:10;21.00;99.90
29201;DHT22;16244;51.956;12.980;2022-08-19T07:11:37;21.10;99.90
29201;DHT22;16244;51.956;12.980;2022-08-19T07:14:05;21.20;99.90
29201;DHT22;16244;51.956;12.980;2022-08-19T07:16:34;21.20;99.90
29201;DHT22;16244;51.956;12.980;2022-08-19T07:19:01;21.30;99.90
29201;DHT22;16244;51.956;12.980;2022-08-19T07:21:28;21.30;99.90
29201;DHT22;16244;51.956;12.980;2022-08-19T07:23:56;21.30;99.90
29201;DHT22;16244;51.956;12.980;2022-08-19T07:26:27;21.30;99.90
29201;DHT22;16244;51.956;12.980;2022-08-19T07:28:56;21.30;99.90
29201;DHT22;16244;51.956;12.980;2022-08-19T07:31:26;21.30;99.90
29201;DHT22;16244;51.956;12.980;2022-08-19T07:33:55;21.30;99.90
29201;DHT22;16244;51.956;12.980;2022-08-19T07:36:26;21.20;99.90
29201;DHT22;16244;51.956;12.980;2022-08-19T07:38:54;21.20;99.90
29201;DHT22;16244;51.956;12.980;2022-08-19T07:41:23;21.10;99.90
29201;DHT22;16244;51.956;12.980;2022-08-19T07:43:51;21.10;99.90
29201;DHT22;16244;51.956;12.980;2022-08-19T07:46:19;21.10;99.90
29201;DHT22;16244;51.956;12.980;2022-08-19T07:48:48;21.10;99.90
29201;DHT22;16244;51.956;12.980;2022-08-19T07:51:19;21.10;99.90
29201;DHT22;16244;51.956;12.980;2022-08-19T07:53:47;21.00;99.90
29201;DHT22;16244;51.956;12.980;2022-08-19T07:56:15;21.00;99.90
29201;DHT22;16244;51.956;12.980;2022-08-19T07:58:44;21.00;99.90
29201;DHT22;16244;51.956;12.980;2022-08-19T08:01:14;21.00;99.90
29201;DHT22;16244;51.956;12.980;2022-08-19T08:03:41;21.00;99.90
29201;DHT22;16244;51.956;12.980;2022-08-19T08:06:28;21.10;99.90
29201;DHT22;16244;51.956;12.980;2022-08-19T08:09:14;21.10;99.90
29201;DHT22;16244;51.956;12.980;2022-08-19T08:11:49;21.00;99.90
29201;DHT22;16244;51.956;12.980;2022-08-19T08:14:21;21.00;99.90
29201;DHT22;16244;51.956;12.980;2022-08-19T08:16:50;21.00;99.90
29201;DHT22;16244;51.956;12.980;2022-08-19T08:19:19;21.10;99.90
29201;DHT22;16244;51.956;12.980;2022-08-19T08:21:49;21.10;99.90
29201;DHT22;16244;51.956;12.980;2022-08-19T08:24:17;21.20;99.90
29201;DHT22;16244;51.956;12.980;2022-08-19T08:26:45;21.10;99.90
29201;DHT22;16244;51.956;12.980;2022-08-19T08:29:13;21.10;99.90
29201;DHT22;16244;51.956;12.980;2022-08-19T08:31:43;21.10;99.90
29201;DHT22;16244;51.956;12.980;2022-08-19T08:34:11;21.10;99.90
29201;DHT22;16244;51.956;12.980;2022-08-19T08:36:43;21.10;99.90
29201;DHT22;16244;51.956;12.980;2022-08-19T08:39:14;21.10;99.90
29201;DHT22;16244;51.956;12.980;2022-08-19T08:41:47;21.20;99.90
29201;DHT22;16244;51.956;12.980;2022-08-19T08:44:25;21.20;99.90
29201;DHT22;16244;51.956;12.980;2022-08-19T08:46:58;21.20;99.90
29201;DHT22;16244;51.956;12.980;2022-08-19T08:49:31;21.30;99.90
29201;DHT22;16244;51.956;12.980;2022-08-19T08:52:05;21.30;99.90
29201;DHT22;16244;51.956;12.980;2022-08-19T08:54:37;21.40;99.90
29201;DHT22;16244;51.956;12.980;2022-08-19T08:57:12;21.50;99.90
29201;DHT22;16244;51.956;12.980;2022-08-19T08:59:41;21.60;99.90
29201;DHT22;16244;51.956;12.980;2022-08-19T09:02:10;21.60;99.90
29201;DHT22;16244;51.956;12.980;2022-08-19T09:04:37;21.60;99.90
29201;DHT22;16244;51.956;12.980;2022-08-19T09:07:19;21.70;99.90
29201;DHT22;16244;51.956;12.980;2022-08-19T09:09:52;21.70;99.90
29201;DHT22;16244;51.956;12.980;2022-08-19T09:12:26;21.80;99.90
29201;DHT22;16244;51.956;12.980;2022-08-19T09:15:03;21.80;99.90
29201;DHT22;16244;51.956;12.980;2022-08-19T09:17:32;21.80;99.90
29201;DHT22;16244;51.956;12.980;2022-08-19T09:20:02;21.70;99.90
29201;DHT22;16244;51.956;12.980;2022-08-19T09:22:34;21.60;99.90
29201;DHT22;16244;51.956;12.980;2022-08-19T09:25:03;21.60;99.90
29201;DHT22;16244;51.956;12.980;2022-08-19T09:27:31;21.70;99.90
29201;DHT22;16244;51.956;12.980;2022-08-19T09:29:58;21.60;99.90
29201;DHT22;16244;51.956;12.980;2022-08-19T09:32:25;21.50;99.90
29201;DHT22;16244;51.956;12.980;2022-08-19T09:34:53;21.50;99.90
29201;DHT22;16244;51.956;12.980;2022-08-19T09:37:23;21.50;99.90
29201;DHT22;16244;51.956;12.980;2022-08-19T09:39:51;21.50;99.90
29201;DHT22;16244;51.956;12.980;2022-08-19T09:42:20;21.50;99.90
29201;DHT22;16244;51.956;12.980;2022-08-19T09:44:47;21.60;99.90
29201;DHT22;16244;51.956;12.980;2022-08-19T09:47:14;21.60;99.90
29201;DHT22;16244;51.956;12.980;2022-08-19T09:49:41;21.70;99.90
29201;DHT22;16244;51.956;12.980;2022-08-19T09:52:09;21.70;99.90
29201;DHT22;16244;51.956;12.980;2022-08-19T09:54:36;21.60;99.90
29201;DHT22;16244;51.956;12.980;2022-08-19T09:57:04;21.60;99.90
29201;DHT22;16244;51.956;12.980;2022-08-19T09:59:33;21.50;99.90
29201;DHT22;16244;51.956;12.980;2022-08-19T10:02:00;21.40;99.90
29201;DHT22;16244;51.956;12.980;2022-08-19T10:04:28;21.40;99.90
29201;DHT22;16244;51.956;12.980;2022-08-19T10:07:09;21.30;99.90
29201;DHT22;16244;51.956;12.980;2022-08-19T10:09:36;21.20;99.90
29201;DHT22;16244;51.956;12.980;2022-08-19T10:12:04;21.30;99.90
29201;DHT22;16244;51.956;12.980;2022-08-19T10:14:34;21.20;99.90
29201;DHT22;16244;51.956;12.980;2022-08-19T10:17:01;21.20;99.90
29201;DHT22;16244;51.956;12.980;2022-08-19T10:19:29;21.20;99.90
29201;DHT22;16244;51.956;12.980;2022-08-19T10:22:05;21.10;99.90
29201;DHT22;16244;51.956;12.980;2022-08-19T10:24:33;21.00;99.90
29201;DHT22;16244;51.956;12.980;2022-08-19T10:27:01;21.00;99.90
29201;DHT22;16244;51.956;12.980;2022-08-19T10:29:29;21.00;99.90
29201;DHT22;16244;51.956;12.980;2022-08-19T10:31:59;21.00;99.90
29201;DHT22;16244;51.956;12.980;2022-08-19T10:34:27;20.90;99.90
29201;DHT22;16244;51.956;12.980;2022-08-19T10:36:55;20.80;99.90
29201;DHT22;16244;51.956;12.980;2022-08-19T10:39:22;20.90;99.90
29201;DHT22;16244;51.956;12.980;2022-08-19T10:41:49;20.90;99.90
29201;DHT22;16244;51.956;12.980;2022-08-19T10:44:16;20.80;99.90
29201;DHT22;16244;51.956;12.980;2022-08-19T10:46:44;20.80;99.90
29201;DHT22;16244;51.956;12.980;2022-08-19T10:49:14;20.70;99.90
29201;DHT22;16244;51.956;12.980;2022-08-19T10:51:41;20.80;99.90
29201;DHT22;16244;51.956;12.980;2022-08-19T10:54:26;20.80;99.90
29201;DHT22;16244;51.956;12.980;2022-08-19T10:57:14;20.90;99.90
29201;DHT22;16244;51.956;12.980;2022-08-19T10:59:41;20.90;99.90
29201;DHT22;16244;51.956;12.980;2022-08-19T11:02:10;20.90;99.90
29201;DHT22;16244;51.956;12.980;2022-08-19T11:04:39;20.90;99.90
29201;DHT22;16244;51.956;12.980;2022-08-19T11:07:07;20.90;99.90
29201;DHT22;16244;51.956;12.980;2022-08-19T11:09:39;20.90;99.90
29201;DHT22;16244;51.956;12.980;2022-08-19T11:12:07;20.90;99.90
29201;DHT22;16244;51.956;12.980;2022-08-19T11:14:35;20.90;99.90
29201;DHT22;16244;51.956;12.980;2022-08-19T11:17:04;21.00;99.90
29201;DHT22;16244;51.956;12.980;2022-08-19T11:19:32;21.00;99.90
29201;DHT22;16244;51.956;12.980;2022-08-19T11:22:01;20.80;99.90
29201;DHT22;16244;51.956;12.980;2022-08-19T11:24:29;20.80;99.90
29201;DHT22;16244;51.956;12.980;2022-08-19T11:27:04;20.80;99.90
29201;DHT22;16244;51.956;12.980;2022-08-19T11:29:32;20.80;99.90
29201;DHT22;16244;51.956;12.980;2022-08-19T11:32:03;20.80;99.90
29201;DHT22;16244;51.956;12.980;2022-08-19T11:34:30;20.80;99.90
29201;DHT22;16244;51.956;12.980;2022-08-19T11:36:57;21.00;99.90
29201;DHT22;16244;51.956;12.980;2022-08-19T11:39:29;21.00;99.90
29201;DHT22;16244;51.956;12.980;2022-08-19T11:41:57;21.10;99.90
29201;DHT22;16244;51.956;12.980;2022-08-19T11:44:25;21.10;99.90
29201;DHT22;16244;51.956;12.980;2022-08-19T11:46:52;21.10;99.90
29201;DHT22;16244;51.956;12.980;2022-08-19T11:49:20;21.10;99.90
29201;DHT22;16244;51.956;12.980;2022-08-19T11:51:48;21.10;99.90
29201;DHT22;16244;51.956;12.980;2022-08-19T11:54:16;21.00;99.90
29201;DHT22;16244;51.956;12.980;2022-08-19T11:56:45;20.90;99.90
29201;DHT22;16244;51.956;12.980;2022-08-19T11:59:15;20.90;99.90
29201;DHT22;16244;51.956;12.980;2022-08-19T12:01:42;20.90;99.90
29201;DHT22;16244;51.956;12.980;2022-08-19T12:04:10;20.90;99.90
29201;DHT22;16244;51.956;12.980;2022-08-19T12:06:40;20.80;99.90
29201;DHT22;16244;51.956;12.980;2022-08-19T12:09:09;20.80;99.90
29201;DHT22;16244;51.956;12.980;2022-08-19T12:11:37;20.80;99.90
29201;DHT22;16244;51.956;12.980;2022-08-19T12:14:08;20.90;99.90
29201;DHT22;16244;51.956;12.980;2022-08-19T12:16:35;20.90;99.90
29201;DHT22;16244;51.956;12.980;2022-08-19T12:19:04;20.90;99.90
29201;DHT22;16244;51.956;12.980;2022-08-19T12:21:34;20.80;99.90
29201;DHT22;16244;51.956;12.980;2022-08-19T12:24:03;20.80;99.90
29201;DHT22;16244;51.956;12.980;2022-08-19T12:26:30;20.90;99.90
29201;DHT22;16244;51.956;12.980;2022-08-19T12:28:59;20.90;99.90
29201;DHT22;16244;51.956;12.980;2022-08-19T12:31:28;20.90;99.90
29201;DHT22;16244;51.956;12.980;2022-08-19T12:33:56;21.00;99.90
29201;DHT22;16244;51.956;12.980;2022-08-19T12:36:23;21.00;99.90
29201;DHT22;16244;51.956;12.980;2022-08-19T12:38:52;21.00;99.90
29201;DHT22;16244;51.956;12.980;2022-08-19T12:41:20;21.10;99.90
29201;DHT22;16244;51.956;12.980;2022-08-19T12:43:48;21.10;99.90
29201;DHT22;16244;51.956;12.980;2022-08-19T12:46:16;21.10;99.90
29201;DHT22;16244;51.956;12.980;2022-08-19T12:48:46;21.20;99.90
29201;DHT22;16244;51.956;12.980;2022-08-19T12:51:15;21.20;99.90
29201;DHT22;16244;51.956;12.980;2022-08-19T12:53:44;21.20;99.90
29201;DHT22;16244;51.956;12.980;2022-08-19T12:58:41;21.30;99.90
29201;DHT22;16244;51.956;12.980;2022-08-19T13:01:20;21.30;99.90
29201;DHT22;16244;51.956;12.980;2022-08-19T13:04:04;21.30;99.90
29201;DHT22;16244;51.956;12.980;2022-08-19T13:06:31;21.30;99.90
29201;DHT22;16244;51.956;12.980;2022-08-19T13:09:24;21.40;99.90
29201;DHT22;16244;51.956;12.980;2022-08-19T13:11:51;21.50;99.90
29201;DHT22;16244;51.956;12.980;2022-08-19T13:14:19;21.50;99.90
29201;DHT22;16244;51.956;12.980;2022-08-19T13:16:46;21.60;99.90
29201;DHT22;16244;51.956;12.980;2022-08-19T13:19:13;21.50;99.90
29201;DHT22;16244;51.956;12.980;2022-08-19T13:21:40;21.60;99.90
29201;DHT22;16244;51.956;12.980;2022-08-19T13:24:07;21.70;99.90
29201;DHT22;16244;51.956;12.980;2022-08-19T13:26:35;21.80;99.90
29201;DHT22;16244;51.956;12.980;2022-08-19T13:29:02;21.80;99.90
29201;DHT22;16244;51.956;12.980;2022-08-19T13:31:47;21.70;99.90
29201;DHT22;16244;51.956;12.980;2022-08-19T13:34:33;21.60;99.90
29201;DHT22;16244;51.956;12.980;2022-08-19T13:37:02;21.60;99.90
29201;DHT22;16244;51.956;12.980;2022-08-19T13:39:30;21.60;99.90
29201;DHT22;16244;51.956;12.980;2022-08-19T13:42:00;21.50;99.90
29201;DHT22;16244;51.956;12.980;2022-08-19T13:44:28;21.50;99.90
29201;DHT22;16244;51.956;12.980;2022-08-19T13:47:00;21.50;99.90
29201;DHT22;16244;51.956;12.980;2022-08-19T13:49:33;21.50;99.90
29201;DHT22;16244;51.956;12.980;2022-08-19T13:52:02;21.40;99.90
29201;DHT22;16244;51.956;12.980;2022-08-19T13:54:29;21.40;99.90
29201;DHT22;16244;51.956;12.980;2022-08-19T13:56:56;21.40;99.90
29201;DHT22;16244;51.956;12.980;2022-08-19T13:59:25;21.40;99.90
29201;DHT22;16244;51.956;12.980;2022-08-19T14:01:52;21.50;99.90
29201;DHT22;16244;51.956;12.980;2022-08-19T14:04:19;21.50;99.90
29201;DHT22;16244;51.956;12.980;2022-08-19T14:06:46;21.60;99.90
29201;DHT22;16244;51.956;12.980;2022-08-19T14:09:13;21.60;99.90
29201;DHT22;16244;51.956;12.980;2022-08-19T14:11:40;21.70;99.90
29201;DHT22;16244;51.956;12.980;2022-08-19T14:14:07;21.60;99.90
29201;DHT22;16244;51.956;12.980;2022-08-19T14:16:36;21.50;99.90
29201;DHT22;16244;51.956;12.980;2022-08-19T14:19:03;21.60;99.90
29201;DHT22;16244;51.956;12.980;2022-08-19T14:21:30;21.50;99.90
29201;DHT22;16244;51.956;12.980;2022-08-19T14:23:58;21.50;99.90
29201;DHT22;16244;51.956;12.980;2022-08-19T14:26:25;21.50;99.90
29201;DHT22;16244;51.956;12.980;2022-08-19T14:28:52;21.50;99.90
29201;DHT22;16244;51.956;12.980;2022-08-19T14:31:23;21.50;99.90
29201;DHT22;16244;51.956;12.980;2022-08-19T14:33:52;21.60;99.90
29201;DHT22;16244;51.956;12.980;2022-08-19T14:36:19;21.60;99.90
29201;DHT22;16244;51.956;12.980;2022-08-19T14:38:47;21.50;99.90
29201;DHT22;16244;51.956;12.980;2022-08-19T14:41:17;21.50;99.90
29201;DHT22;16244;51.956;12.980;2022-08-19T14:43:46;21.50;99.90
29201;DHT22;16244;51.956;12.980;2022-08-19T14:46:14;21.50;99.90
29201;DHT22;16244;51.956;12.980;2022-08-19T14:48:42;21.50;99.90
29201;DHT22;16244;51.956;12.980;2022-08-19T14:51:11;21.50;99.90
29201;DHT22;16244;51.956;12.980;2022-08-19T14:53:38;21.50;99.90
29201;DHT22;16244;51.956;12.980;2022-08-19T14:56:10;21.40;99.90
29201;DHT22;16244;51.956;12.980;2022-08-19T14:58:37;21.40;99.90
29201;DHT22;16244;51.956;12.980;2022-08-19T15:01:06;21.40;99.90
29201;DHT22;16244;51.956;12.980;2022-08-19T15:03:33;21.40;99.90
29201;DHT22;16244;51.956;12.980;2022-08-19T15:06:02;21.30;99.90
29201;DHT22;16244;51.956;12.980;2022-08-19T15:08:32;21.30;99.90
29201;DHT22;16244;51.956;12.980;2022-08-19T15:10:59;21.20;99.90
29201;DHT22;16244;51.956;12.980;2022-08-19T15:13:28;21.20;99.90
29201;DHT22;16244;51.956;12.980;2022-08-19T15:15:56;21.20;99.90
29201;DHT22;16244;51.956;12.980;2022-08-19T15:18:23;21.20;99.90
29201;DHT22;16244;51.956;12.980;2022-08-19T15:20:51;21.10;99.90
29201;DHT22;16244;51.956;12.980;2022-08-19T15:23:19;21.00;99.90
29201;DHT22;16244;51.956;12.980;2022-08-19T15:25:48;21.00;99.90
29201;DHT22;16244;51.956;12.980;2022-08-19T15:28:17;21.00;99.90
29201;DHT22;16244;51.956;12.980;2022-08-19T15:30:44;21.00;99.90